Whitebluff, Mississippi
Current Conditions -  °F | °C
As of 11:53 AM on Wednesday 28 Jan 2015 (Local Time) from KMCB Reporting Station
Clear Clear  
Wind Chill: 62°   Ceiling: Unl
Heat Index: 62°   Visibility: 10mi
Dew Point: 36°   Wind: 7mph
Humidity: 38%   Direction: 170°S
Pressure: 30.28"   Gusts: NA
Location:  31.274°N, 89.9542°W
Report Text: KMCB 281753Z AUTO 17006KT 10SM CLR 17/02 A3028 RMK AO2 SLP250 T01670022 10172 20061 58001
Loading
Personal Weather Stations






























Interactive Weather Map New forecast layout! Learn more

10-Day Weather Forecast

Advertisements
Track Severe Weather on mobile